Time;durP1;ratioP1;P1;durP2;ratioP2;P2;SDS_P1;SDS_P2;PMS_P1;PMS_P2;Temp;Humidity;BMP_temperature;BMP_pressure;BME280_temperature;BME280_humidity;BME280_pressure;Samples;Min_cycle;Max_cycle;Signal;HPM_P1;HPM_P2
2024/03/07 00:00:19;;;;;;;25.50;14.60;;;4.50;99.90;;;;;;4976032;28;20034;-80
2024/03/07 00:02:47;;;;;;;28.55;14.60;;;4.50;99.90;;;;;;4977359;28;20027;-79
2024/03/07 00:05:13;;;;;;;26.70;14.30;;;4.50;99.90;;;;;;4976777;28;20023;-80
2024/03/07 00:07:39;;;;;;;22.67;14.50;;;4.50;99.90;;;;;;4971994;28;20067;-79
2024/03/07 00:10:07;;;;;;;25.85;15.70;;;4.50;99.90;;;;;;4973057;28;20121;-80
2024/03/07 00:12:35;;;;;;;23.00;15.30;;;4.60;99.90;;;;;;4973848;28;20111;-79
2024/03/07 00:15:01;;;;;;;21.65;14.48;;;4.60;99.90;;;;;;4971955;28;20037;-80
2024/03/07 00:17:27;;;;;;;24.23;14.95;;;4.60;99.90;;;;;;4970532;28;20045;-80
2024/03/07 00:19:52;;;;;;;22.70;14.07;;;4.60;99.90;;;;;;4971517;28;20557;-80
2024/03/07 00:22:18;;;;;;;28.90;14.98;;;4.70;99.90;;;;;;4971528;28;20027;-80
2024/03/07 00:24:47;;;;;;;23.83;14.40;;;4.70;99.90;;;;;;4972889;28;20019;-80
2024/03/07 00:27:14;;;;;;;23.60;14.68;;;4.80;99.90;;;;;;4971159;28;20019;-80
2024/03/07 00:29:40;;;;;;;23.83;14.73;;;4.80;99.90;;;;;;4970816;28;20023;-80
2024/03/07 00:32:05;;;;;;;24.50;14.30;;;4.80;99.90;;;;;;4971376;28;20089;-81
2024/03/07 00:34:31;;;;;;;23.00;14.32;;;4.80;99.90;;;;;;4972733;28;20080;-80
2024/03/07 00:36:58;;;;;;;28.20;15.73;;;4.90;99.90;;;;;;4971414;28;20126;-80
2024/03/07 00:39:24;;;;;;;25.48;15.68;;;4.90;99.90;;;;;;4970819;28;20046;-80
2024/03/07 00:41:50;;;;;;;24.33;14.63;;;4.90;99.90;;;;;;4970868;28;20023;-80
2024/03/07 00:44:16;;;;;;;24.38;14.57;;;4.90;99.90;;;;;;4971246;28;20027;-80
2024/03/07 00:46:41;;;;;;;22.70;14.63;;;5.00;99.90;;;;;;4972509;28;20090;-80
2024/03/07 00:49:07;;;;;;;20.05;13.48;;;5.00;99.90;;;;;;4970857;28;20027;-80
2024/03/07 00:51:32;;;;;;;25.27;15.90;;;5.00;99.90;;;;;;4972205;28;20027;-80
2024/03/07 00:53:58;;;;;;;22.77;14.82;;;5.00;99.90;;;;;;4970782;28;20030;-80
2024/03/07 00:56:23;;;;;;;21.35;14.20;;;5.10;99.90;;;;;;4972267;28;20031;-80
2024/03/07 00:58:51;;;;;;;22.40;13.90;;;5.00;99.90;;;;;;4970962;28;20037;-80
2024/03/07 01:01:17;;;;;;;22.02;14.18;;;5.10;99.90;;;;;;4970042;28;20030;-80
2024/03/07 01:03:43;;;;;;;23.15;14.43;;;5.10;99.90;;;;;;4987426;28;20051;-80
2024/03/07 01:06:11;;;;;;;27.65;15.45;;;5.10;99.90;;;;;;4971886;28;20027;-80
2024/03/07 01:08:38;;;;;;;21.90;14.15;;;5.10;99.90;;;;;;4970461;28;20033;-80
2024/03/07 01:11:12;;;;;;;23.13;14.63;;;5.10;99.90;;;;;;4970343;28;20109;-80
2024/03/07 01:13:38;;;;;;;22.25;15.30;;;5.20;99.90;;;;;;4970327;28;20485;-80
2024/03/07 01:16:04;;;;;;;24.83;15.63;;;5.20;99.90;;;;;;4986800;28;20031;-80
2024/03/07 01:18:31;;;;;;;23.40;15.65;;;5.20;99.90;;;;;;4970730;28;20404;-80
2024/03/07 01:20:57;;;;;;;21.55;14.55;;;5.20;99.90;;;;;;4970768;28;20027;-80
2024/03/07 01:23:22;;;;;;;27.70;15.82;;;5.20;99.90;;;;;;4971949;28;20026;-80
2024/03/07 01:25:48;;;;;;;24.77;16.55;;;5.20;99.90;;;;;;4970392;28;20090;-80
2024/03/07 01:28:14;;;;;;;25.67;15.30;;;5.20;99.90;;;;;;4970130;28;20123;-80
2024/03/07 01:30:40;;;;;;;27.00;16.08;;;5.20;99.90;;;;;;4969291;28;20023;-80
2024/03/07 01:33:06;;;;;;;22.13;14.93;;;5.20;99.90;;;;;;4970187;28;20027;-80
2024/03/07 01:35:31;;;;;;;23.05;14.63;;;5.30;99.90;;;;;;4986349;28;20023;-80
2024/03/07 01:37:57;;;;;;;22.38;15.18;;;5.30;99.90;;;;;;4971578;28;20089;-80
2024/03/07 01:40:22;;;;;;;27.52;16.52;;;5.30;99.90;;;;;;4970091;28;20034;-81
2024/03/07 01:42:50;;;;;;;26.63;15.65;;;5.30;99.90;;;;;;4971311;28;20027;-80
2024/03/07 01:45:15;;;;;;;26.42;16.30;;;5.20;99.90;;;;;;4971648;28;20281;-80
2024/03/07 01:47:41;;;;;;;24.48;15.68;;;5.20;99.90;;;;;;4970039;28;20478;-80
2024/03/07 01:50:07;;;;;;;29.13;17.10;;;5.30;99.90;;;;;;4970816;28;20105;-81
2024/03/07 01:52:33;;;;;;;26.23;17.15;;;5.30;99.90;;;;;;4970057;28;20101;-80
2024/03/07 01:55:00;;;;;;;26.45;16.15;;;5.30;99.90;;;;;;4970017;28;20035;-81
2024/03/07 01:57:25;;;;;;;26.60;16.67;;;5.20;99.90;;;;;;4969995;28;20037;-80
2024/03/07 01:59:51;;;;;;;30.42;17.67;;;5.30;99.90;;;;;;4970740;28;20026;-81
2024/03/07 02:02:19;;;;;;;29.65;17.02;;;5.40;99.90;;;;;;4970002;28;20504;-81
2024/03/07 02:04:45;;;;;;;32.88;18.83;;;5.40;99.90;;;;;;4985954;28;20275;-81
2024/03/07 02:07:13;;;;;;;29.70;18.35;;;5.40;99.90;;;;;;4971047;28;20023;-81
2024/03/07 02:09:39;;;;;;;29.13;18.13;;;5.40;99.90;;;;;;4969336;28;20050;-81
2024/03/07 02:12:05;;;;;;;28.30;18.20;;;5.30;99.90;;;;;;4970972;28;20449;-80
2024/03/07 02:14:31;;;;;;;32.13;18.33;;;5.40;99.90;;;;;;4969393;28;20037;-80
2024/03/07 02:16:56;;;;;;;29.60;18.02;;;5.40;99.90;;;;;;4969608;28;20027;-80
2024/03/07 02:19:23;;;;;;;28.70;17.30;;;5.40;99.90;;;;;;4968905;28;20027;-80
2024/03/07 02:21:48;;;;;;;26.65;17.67;;;5.40;99.90;;;;;;4969299;28;20031;-81
2024/03/07 02:24:15;;;;;;;27.48;16.80;;;5.40;99.90;;;;;;4970742;28;20113;-81
2024/03/07 02:26:41;;;;;;;26.52;17.70;;;5.40;99.90;;;;;;4969211;28;20022;-80
2024/03/07 02:29:06;;;;;;;30.75;18.00;;;5.40;99.90;;;;;;4969251;28;20023;-81
2024/03/07 02:31:36;;;;;;;29.17;18.65;;;5.50;99.90;;;;;;4969299;28;20049;-81
2024/03/07 02:34:03;;;;;;;30.95;17.98;;;5.50;99.90;;;;;;4969344;28;20030;-81
2024/03/07 02:36:28;;;;;;;28.63;17.77;;;5.50;99.90;;;;;;4969280;28;20035;-81
2024/03/07 02:38:54;;;;;;;30.25;17.80;;;5.50;99.90;;;;;;4985949;28;20022;-81
2024/03/07 02:41:19;;;;;;;32.30;19.00;;;5.50;99.90;;;;;;4971508;28;20098;-81
2024/03/07 02:43:45;;;;;;;30.95;18.92;;;5.50;99.90;;;;;;4973500;28;20026;-81
2024/03/07 02:46:11;;;;;;;35.67;20.00;;;5.50;99.90;;;;;;4973192;28;20019;-81
2024/03/07 02:48:45;;;;;;;35.47;19.92;;;5.50;99.90;;;;;;4973196;28;20094;-81
2024/03/07 02:51:11;;;;;;;29.10;19.50;;;5.50;99.90;;;;;;4973529;28;20089;-80
2024/03/07 02:53:38;;;;;;;38.80;22.15;;;5.50;99.90;;;;;;4974192;28;20027;-80
2024/03/07 02:56:07;;;;;;;34.40;21.15;;;5.50;99.90;;;;;;4974448;28;20030;-81
2024/03/07 02:58:33;;;;;;;33.17;19.90;;;5.40;99.90;;;;;;4989263;28;20513;-81
2024/03/07 03:01:00;;;;;;;33.72;19.88;;;5.50;99.90;;;;;;4973282;28;20034;-80
2024/03/07 03:03:26;;;;;;;34.15;21.25;;;5.50;99.90;;;;;;4971991;28;20081;-80
2024/03/07 03:05:51;;;;;;;35.08;21.27;;;5.50;99.90;;;;;;4974065;28;20018;-81
2024/03/07 03:08:17;;;;;;;32.33;20.70;;;5.40;99.90;;;;;;4973070;28;20162;-80
2024/03/07 03:10:44;;;;;;;36.03;21.25;;;5.40;99.90;;;;;;4973865;28;20518;-80
2024/03/07 03:13:10;;;;;;;31.02;20.48;;;5.50;99.90;;;;;;4972818;28;20512;-81
2024/03/07 03:15:37;;;;;;;35.72;22.20;;;5.50;99.90;;;;;;4972711;28;20034;-81
2024/03/07 03:18:05;;;;;;;37.22;21.33;;;5.50;99.90;;;;;;4972920;28;20263;-81
2024/03/07 03:20:34;;;;;;;34.22;21.45;;;5.40;99.90;;;;;;4973547;28;20031;-81
2024/03/07 03:23:02;;;;;;;38.97;21.70;;;5.40;99.90;;;;;;4972528;28;20482;-81
2024/03/07 03:25:28;;;;;;;30.60;19.33;;;5.50;99.90;;;;;;4972845;28;20023;-80
2024/03/07 03:27:53;;;;;;;39.67;22.80;;;5.40;99.90;;;;;;4972632;28;20500;-80
2024/03/07 03:30:19;;;;;;;34.78;21.17;;;5.40;99.90;;;;;;4973540;28;20019;-81
2024/03/07 03:32:48;;;;;;;42.38;22.85;;;5.50;99.90;;;;;;4972248;28;20101;-80
2024/03/07 03:35:16;;;;;;;35.03;20.92;;;5.40;99.90;;;;;;4988316;28;20031;-81
2024/03/07 03:37:43;;;;;;;39.33;23.02;;;5.40;99.90;;;;;;4972109;28;20085;-80
2024/03/07 03:40:10;;;;;;;38.25;22.58;;;5.50;99.90;;;;;;4971853;28;20031;-80
2024/03/07 03:42:39;;;;;;;37.33;21.27;;;5.50;99.90;;;;;;4973502;28;20031;-80
2024/03/07 03:45:06;;;;;;;37.70;21.58;;;5.50;99.90;;;;;;4973922;28;20019;-80
2024/03/07 03:47:37;;;;;;;38.50;22.02;;;5.50;99.90;;;;;;4973351;28;20030;-80
2024/03/07 03:50:08;;;;;;;44.08;23.08;;;5.50;99.90;;;;;;4971701;28;20031;-81
2024/03/07 03:52:37;;;;;;;40.72;22.77;;;5.50;99.90;;;;;;4972014;28;20031;-80
2024/03/07 03:55:09;;;;;;;41.10;22.63;;;5.60;99.90;;;;;;4971919;28;20122;-80
2024/03/07 03:57:35;;;;;;;45.80;24.15;;;5.50;99.90;;;;;;4972340;28;20026;-80
2024/03/07 04:00:00;;;;;;;45.95;24.38;;;5.50;99.90;;;;;;4971543;28;20031;-80
2024/03/07 04:02:26;;;;;;;53.83;26.02;;;5.60;99.90;;;;;;4972683;28;20029;-80
2024/03/07 04:04:52;;;;;;;61.00;29.27;;;5.60;99.90;;;;;;4972965;28;20027;-81
2024/03/07 04:07:18;;;;;;;60.45;28.08;;;5.60;99.90;;;;;;4973132;28;20019;-82
2024/03/07 04:09:48;;;;;;;54.60;27.05;;;5.50;99.90;;;;;;4971360;28;20122;-81
2024/03/07 04:12:15;;;;;;;64.65;29.60;;;5.50;99.90;;;;;;4971636;28;20023;-81
2024/03/07 04:14:41;;;;;;;57.33;28.30;;;5.60;99.90;;;;;;4973676;28;20310;-81
2024/03/07 04:17:08;;;;;;;50.55;25.63;;;5.60;99.90;;;;;;4973152;28;20031;-81
2024/03/07 04:19:38;;;;;;;57.72;27.00;;;5.60;99.90;;;;;;4972855;28;20099;-81
2024/03/07 04:22:04;;;;;;;66.45;29.52;;;5.60;99.90;;;;;;4971922;28;20471;-81
2024/03/07 04:24:33;;;;;;;59.90;28.67;;;5.60;99.90;;;;;;4973196;28;20105;-81
2024/03/07 04:27:06;;;;;;;66.07;29.42;;;5.60;99.90;;;;;;4971436;28;20030;-81
2024/03/07 04:29:32;;;;;;;62.28;26.38;;;5.60;99.90;;;;;;4971364;28;20034;-81
2024/03/07 04:31:59;;;;;;;56.83;27.58;;;5.60;99.90;;;;;;4972939;28;20031;-81
2024/03/07 04:34:24;;;;;;;56.08;27.17;;;5.60;99.90;;;;;;4973217;28;20488;-81
2024/03/07 04:36:50;;;;;;;55.42;28.08;;;5.60;99.90;;;;;;4971459;28;20031;-81
2024/03/07 04:39:35;;;;;;;58.60;27.27;;;5.60;99.90;;;;;;4972385;28;20494;-81
2024/03/07 04:42:01;;;;;;;61.28;29.08;;;5.60;99.90;;;;;;4972426;28;20062;-81
2024/03/07 04:44:32;;;;;;;60.03;28.70;;;5.70;99.90;;;;;;4971377;28;20033;-81
2024/03/07 04:46:59;;;;;;;59.75;27.90;;;5.70;99.90;;;;;;4972505;28;20038;-81
2024/03/07 04:49:27;;;;;;;56.55;28.70;;;5.70;99.90;;;;;;4972130;28;20042;-81
2024/03/07 04:51:54;;;;;;;66.45;31.08;;;5.70;99.90;;;;;;4971097;28;20113;-81
2024/03/07 04:54:20;;;;;;;65.40;29.83;;;5.70;99.90;;;;;;4972617;28;20397;-81
2024/03/07 04:56:46;;;;;;;55.97;27.67;;;5.60;99.90;;;;;;4987607;28;20310;-82
2024/03/07 04:59:13;;;;;;;63.72;30.67;;;5.60;99.90;;;;;;4972452;28;20393;-81
2024/03/07 05:01:39;;;;;;;61.53;29.48;;;5.60;99.90;;;;;;4970957;28;20088;-80
2024/03/07 05:04:06;;;;;;;67.97;28.88;;;5.60;99.90;;;;;;4969582;28;20284;-81
2024/03/07 05:06:33;;;;;;;63.42;29.65;;;5.60;99.90;;;;;;4983722;28;20555;-81
2024/03/07 05:09:03;;;;;;;64.05;31.10;;;5.60;99.90;;;;;;4966326;28;20113;-81
2024/03/07 05:11:30;;;;;;;61.17;28.03;;;5.70;99.90;;;;;;4972244;28;20037;-81
2024/03/07 05:13:55;;;;;;;71.63;31.20;;;5.70;99.90;;;;;;4970520;28;20274;-81
2024/03/07 05:16:21;;;;;;;66.28;30.17;;;5.70;99.90;;;;;;4972351;28;20037;-81
2024/03/07 05:18:46;;;;;;;71.00;32.03;;;5.70;99.90;;;;;;4970746;28;20035;-81
2024/03/07 05:23:57;;;;;;;69.40;31.92;;;5.70;99.90;;;;;;4971459;28;20045;-81
2024/03/07 05:26:23;;;;;;;67.30;31.20;;;5.70;99.90;;;;;;4971518;28;20036;-81
2024/03/07 05:28:49;;;;;;;69.03;30.00;;;5.80;99.90;;;;;;4970351;28;20103;-82
2024/03/07 05:31:14;;;;;;;74.53;30.00;;;5.80;99.90;;;;;;4971388;28;20057;-81
2024/03/07 05:33:40;;;;;;;59.58;29.20;;;5.80;99.90;;;;;;4971464;28;20058;-81
2024/03/07 05:36:15;;;;;;;63.33;29.48;;;5.80;99.90;;;;;;4970136;28;20093;-81
2024/03/07 05:38:44;;;;;;;67.80;30.50;;;5.80;99.90;;;;;;4970336;28;20034;-82
2024/03/07 05:41:12;;;;;;;71.32;30.20;;;5.80;99.90;;;;;;4969519;28;20530;-81
2024/03/07 05:43:38;;;;;;;82.30;30.73;;;5.80;99.90;;;;;;4970522;28;20078;-82
2024/03/07 05:46:06;;;;;;;66.13;28.35;;;5.80;99.90;;;;;;4969831;28;20023;-81
2024/03/07 05:48:31;;;;;;;73.72;30.20;;;5.80;99.90;;;;;;4969921;28;20033;-81
2024/03/07 05:50:57;;;;;;;69.97;28.95;;;5.80;99.90;;;;;;4970992;28;20106;-81
2024/03/07 05:53:23;;;;;;;69.97;30.88;;;5.80;99.90;;;;;;4985912;28;20027;-81
2024/03/07 05:55:49;;;;;;;62.08;29.58;;;5.80;99.90;;;;;;4969679;28;20054;-81
2024/03/07 05:58:15;;;;;;;63.40;26.98;;;5.80;99.90;;;;;;4969760;28;20489;-81
2024/03/07 06:00:46;;;;;;;82.32;31.30;;;5.80;99.90;;;;;;4970349;28;20474;-82
2024/03/07 06:03:13;;;;;;;68.30;29.42;;;5.80;99.90;;;;;;4970018;28;20026;-81
2024/03/07 06:05:42;;;;;;;71.28;30.58;;;5.80;99.90;;;;;;4969545;28;20018;-82
2024/03/07 06:08:08;;;;;;;68.70;30.80;;;5.80;99.90;;;;;;4971290;28;20023;-82
2024/03/07 06:10:34;;;;;;;76.20;31.65;;;5.80;99.90;;;;;;4969815;28;20034;-81
2024/03/07 06:12:59;;;;;;;73.82;30.65;;;5.80;99.90;;;;;;4969716;28;20478;-81
2024/03/07 06:15:25;;;;;;;79.57;32.28;;;5.90;99.90;;;;;;4969967;28;20065;-81
2024/03/07 06:17:50;;;;;;;76.45;33.45;;;5.90;99.90;;;;;;4969221;28;20344;-81
2024/03/07 06:20:24;;;;;;;83.35;32.55;;;5.90;99.90;;;;;;4970660;28;20042;-81
2024/03/07 06:22:51;;;;;;;80.25;32.08;;;5.80;99.90;;;;;;4969798;28;20031;-81
2024/03/07 06:25:33;;;;;;;86.07;33.28;;;5.80;99.90;;;;;;4969777;28;20019;-81
2024/03/07 06:28:08;;;;;;;69.57;30.00;;;5.90;99.90;;;;;;4969572;28;20544;-81
2024/03/07 06:30:34;;;;;;;80.03;32.13;;;5.90;99.90;;;;;;4969522;28;20030;-81
2024/03/07 06:32:59;;;;;;;81.97;32.80;;;5.80;99.90;;;;;;4969574;28;20023;-81
2024/03/07 06:35:25;;;;;;;98.00;36.47;;;5.80;99.90;;;;;;4969561;28;20216;-81
2024/03/07 06:37:50;;;;;;;93.70;34.45;;;5.80;99.90;;;;;;4971270;28;20031;-81
2024/03/07 06:40:21;;;;;;;92.55;34.90;;;5.80;99.90;;;;;;4968986;28;20121;-81
2024/03/07 06:42:46;;;;;;;97.90;36.25;;;5.80;99.90;;;;;;4969819;28;20035;-81
2024/03/07 06:45:12;;;;;;;100.80;35.72;;;5.80;99.90;;;;;;4970875;28;20089;-81
2024/03/07 06:47:38;;;;;;;89.20;33.10;;;5.80;99.90;;;;;;4969423;28;20026;-81
2024/03/07 06:50:04;;;;;;;88.75;34.00;;;5.80;99.90;;;;;;4969531;28;20023;-81
2024/03/07 06:52:29;;;;;;;92.90;35.72;;;5.80;99.90;;;;;;4970911;28;20027;-81
2024/03/07 06:54:56;;;;;;;104.25;37.72;;;5.80;99.90;;;;;;4969297;28;20609;-81
2024/03/07 06:57:22;;;;;;;85.97;34.53;;;5.80;99.90;;;;;;4985655;28;20056;-81
2024/03/07 06:59:47;;;;;;;94.72;35.28;;;5.80;99.90;;;;;;4970354;28;20027;-82
2024/03/07 07:02:13;;;;;;;90.70;33.60;;;5.90;99.90;;;;;;4970817;28;20398;-81
2024/03/07 07:04:42;;;;;;;104.85;36.13;;;5.90;99.90;;;;;;4970991;28;20019;-81
2024/03/07 07:07:10;;;;;;;84.07;33.85;;;5.90;99.90;;;;;;4970690;28;20147;-81
2024/03/07 07:09:36;;;;;;;105.60;35.80;;;5.90;99.90;;;;;;4969141;28;20320;-81
2024/03/07 07:12:05;;;;;;;97.03;36.92;;;5.90;99.90;;;;;;4970407;28;20562;-81
2024/03/07 07:14:30;;;;;;;106.82;36.95;;;5.90;99.90;;;;;;4969200;28;20035;-81
2024/03/07 07:16:56;;;;;;;112.20;39.75;;;5.90;99.90;;;;;;4970614;28;20027;-81
2024/03/07 07:19:22;;;;;;;93.68;36.13;;;5.90;99.90;;;;;;4968926;28;20027;-81
2024/03/07 07:21:53;;;;;;;100.45;39.05;;;5.90;99.90;;;;;;4969265;28;20446;-81
2024/03/07 07:24:19;;;;;;;102.25;35.58;;;5.90;99.90;;;;;;4969329;28;20461;-81
2024/03/07 07:26:45;;;;;;;99.82;36.90;;;5.90;99.90;;;;;;4969955;28;20031;-81
2024/03/07 07:29:11;;;;;;;93.63;36.22;;;6.00;99.90;;;;;;4972718;28;20118;-81
2024/03/07 07:31:36;;;;;;;103.50;35.97;;;6.00;99.90;;;;;;4974611;28;20163;-81
2024/03/07 07:34:04;;;;;;;94.22;37.25;;;6.00;99.90;;;;;;4973497;28;20043;-81
2024/03/07 07:36:29;;;;;;;105.53;37.72;;;6.00;99.90;;;;;;4974846;28;20058;-81
2024/03/07 07:38:55;;;;;;;93.40;35.75;;;6.10;99.90;;;;;;4989409;28;20070;-81
2024/03/07 07:41:21;;;;;;;92.40;36.10;;;6.10;99.90;;;;;;4972939;28;20031;-81
2024/03/07 07:43:47;;;;;;;89.68;35.95;;;6.10;99.90;;;;;;4973911;28;20109;-81
2024/03/07 07:46:15;;;;;;;106.78;37.22;;;6.10;99.90;;;;;;4974180;28;20054;-82
2024/03/07 07:48:41;;;;;;;112.53;41.65;;;6.10;99.90;;;;;;4974839;28;20235;-81
2024/03/07 07:51:07;;;;;;;107.07;36.95;;;6.10;99.90;;;;;;4975518;28;20015;-82
2024/03/07 07:53:33;;;;;;;105.20;38.20;;;6.10;99.90;;;;;;4973988;28;20054;-81
2024/03/07 07:55:58;;;;;;;100.53;37.40;;;6.10;99.90;;;;;;4972639;28;20023;-82
2024/03/07 07:58:24;;;;;;;109.47;40.08;;;6.00;99.90;;;;;;4972739;28;20050;-81
2024/03/07 08:00:49;;;;;;;97.72;36.13;;;6.10;99.90;;;;;;4973462;28;20027;-81
2024/03/07 08:03:17;;;;;;;120.97;38.60;;;6.10;99.90;;;;;;4973575;28;20058;-81
2024/03/07 08:05:44;;;;;;;113.70;37.30;;;6.00;99.90;;;;;;4974037;28;20033;-81
2024/03/07 08:08:13;;;;;;;93.50;36.70;;;6.10;99.90;;;;;;4972980;28;20054;-82
2024/03/07 08:10:39;;;;;;;104.13;39.17;;;6.00;99.90;;;;;;4973607;28;20098;-82
2024/03/07 08:13:13;;;;;;;118.72;39.58;;;6.10;99.90;;;;;;4972727;28;20471;-81
2024/03/07 08:15:38;;;;;;;104.95;36.55;;;6.00;99.90;;;;;;4973284;28;20022;-81
2024/03/07 08:18:10;;;;;;;107.68;36.45;;;6.00;99.90;;;;;;4976189;28;20030;-81
2024/03/07 08:20:36;;;;;;;94.82;36.95;;;5.90;99.90;;;;;;4980076;28;20412;-81
2024/03/07 08:23:01;;;;;;;100.13;37.03;;;5.90;99.90;;;;;;4979496;28;20108;-83
2024/03/07 08:25:29;;;;;;;117.32;40.42;;;5.90;99.90;;;;;;4977997;28;20049;-81
2024/03/07 08:27:58;;;;;;;108.15;38.47;;;5.90;99.90;;;;;;4979116;28;20065;-82
2024/03/07 08:30:26;;;;;;;88.75;35.58;;;5.90;99.90;;;;;;4980621;28;20076;-81
2024/03/07 08:32:55;;;;;;;102.00;38.10;;;5.90;99.90;;;;;;4985224;28;20027;-81
2024/03/07 08:35:21;;;;;;;101.93;38.47;;;5.90;99.90;;;;;;4972126;28;20034;-82
2024/03/07 08:37:57;;;;;;;84.47;34.70;;;5.90;99.90;;;;;;4972015;28;20058;-82
2024/03/07 08:40:30;;;;;;;104.50;36.90;;;6.00;99.90;;;;;;4972570;28;20081;-82
2024/03/07 08:42:57;;;;;;;95.10;36.50;;;6.00;99.90;;;;;;4972764;28;20019;-81
2024/03/07 08:45:23;;;;;;;98.20;36.67;;;6.00;99.90;;;;;;4971546;28;20033;-82
2024/03/07 08:47:50;;;;;;;77.70;32.88;;;6.10;99.90;;;;;;4972588;28;20066;-82
2024/03/07 08:50:20;;;;;;;92.30;34.67;;;6.10;99.90;;;;;;4971899;28;20018;-82
2024/03/07 08:52:50;;;;;;;92.60;34.67;;;6.10;99.90;;;;;;4971062;28;20504;-82
2024/03/07 08:55:18;;;;;;;83.43;33.17;;;6.20;99.90;;;;;;4971092;28;20030;-82
2024/03/07 08:57:49;;;;;;;93.13;33.65;;;6.20;99.90;;;;;;4971110;28;20504;-82
2024/03/07 09:00:22;;;;;;;101.53;39.47;;;6.20;99.90;;;;;;4970723;28;20029;-82
2024/03/07 09:02:51;;;;;;;85.95;33.72;;;6.20;99.90;;;;;;4972323;28;20077;-82
2024/03/07 09:05:17;;;;;;;87.13;32.87;;;6.30;99.90;;;;;;4971300;28;20027;-82
2024/03/07 09:07:44;;;;;;;81.05;34.35;;;6.30;99.90;;;;;;4971016;28;20556;-82
2024/03/07 09:10:10;;;;;;;83.47;34.05;;;6.30;99.90;;;;;;4972005;28;20375;-82
2024/03/07 09:12:36;;;;;;;78.97;33.83;;;6.40;99.90;;;;;;4987090;28;20109;-82
2024/03/07 09:15:03;;;;;;;76.22;32.53;;;6.50;99.90;;;;;;4970882;28;20609;-82
2024/03/07 09:17:29;;;;;;;73.20;32.20;;;6.60;99.90;;;;;;4970765;28;20505;-82
2024/03/07 09:19:55;;;;;;;78.45;31.25;;;6.70;99.90;;;;;;4972063;28;20042;-82
2024/03/07 09:22:20;;;;;;;80.78;32.67;;;6.80;99.90;;;;;;4970731;28;20037;-82
2024/03/07 09:24:46;;;;;;;82.20;32.28;;;6.90;99.90;;;;;;4971072;28;20118;-82
2024/03/07 09:27:14;;;;;;;95.20;34.25;;;7.00;99.90;;;;;;4970598;28;20157;-82
2024/03/07 09:29:40;;;;;;;71.72;31.52;;;7.10;99.90;;;;;;4970363;28;20027;-82
2024/03/07 09:32:08;;;;;;;69.43;30.52;;;7.20;99.90;;;;;;4970455;28;20037;-81
2024/03/07 09:34:35;;;;;;;77.40;33.25;;;7.20;99.90;;;;;;4971782;28;20033;-82
2024/03/07 09:37:01;;;;;;;81.82;33.53;;;7.20;99.90;;;;;;4970311;28;20264;-82
2024/03/07 09:39:27;;;;;;;73.63;33.22;;;7.20;99.90;;;;;;4971739;28;20449;-82
2024/03/07 09:41:55;;;;;;;73.90;31.75;;;7.30;99.90;;;;;;4970481;28;20030;-82
2024/03/07 09:44:22;;;;;;;69.97;31.98;;;7.30;99.90;;;;;;4970091;28;20024;-82
2024/03/07 09:46:55;;;;;;;66.55;29.23;;;7.40;99.90;;;;;;4970322;28;20031;-82
2024/03/07 09:49:20;;;;;;;72.93;30.48;;;7.50;99.90;;;;;;4969823;28;20328;-82
2024/03/07 09:51:47;;;;;;;68.00;31.27;;;7.50;99.90;;;;;;4970256;28;20418;-82
2024/03/07 09:54:14;;;;;;;63.67;29.75;;;7.70;99.90;;;;;;4971118;28;20031;-82
2024/03/07 09:56:41;;;;;;;75.10;30.85;;;7.70;99.90;;;;;;4971359;28;20027;-82
2024/03/07 09:59:15;;;;;;;68.03;32.05;;;7.80;99.90;;;;;;4969719;28;20026;-82
2024/03/07 10:01:45;;;;;;;69.78;30.25;;;7.80;99.90;;;;;;4971407;28;20022;-82
2024/03/07 10:04:14;;;;;;;67.38;30.00;;;7.90;99.90;;;;;;4970299;28;20027;-81
2024/03/07 10:06:46;;;;;;;58.00;27.58;;;8.00;99.90;;;;;;4971311;28;20023;-82
2024/03/07 10:09:13;;;;;;;50.63;25.38;;;9.30;99.90;;;;;;4969815;28;20066;-82
2024/03/07 10:11:42;;;;;;;45.33;23.75;;;11.00;99.90;;;;;;4971248;28;20035;-82
2024/03/07 10:14:09;;;;;;;49.65;27.00;;;11.70;99.90;;;;;;4971553;28;20027;-82
2024/03/07 10:16:35;;;;;;;46.08;24.10;;;11.80;99.90;;;;;;4973027;28;20031;-82
2024/03/07 10:19:04;;;;;;;49.90;25.98;;;11.40;99.90;;;;;;4970842;28;20509;-82
2024/03/07 10:21:30;;;;;;;54.30;27.60;;;11.10;99.90;;;;;;4971888;28;20109;-82
2024/03/07 10:24:06;;;;;;;48.30;28.08;;;10.70;99.90;;;;;;4986153;28;20117;-82
2024/03/07 10:26:34;;;;;;;49.90;26.88;;;10.40;99.90;;;;;;4971545;28;20022;-82
2024/03/07 10:29:00;;;;;;;54.10;27.38;;;10.30;99.90;;;;;;4969546;28;20019;-82
2024/03/07 10:31:30;;;;;;;53.15;27.90;;;10.30;99.90;;;;;;4969397;28;20027;-82
2024/03/07 10:33:59;;;;;;;54.45;27.15;;;10.30;99.90;;;;;;4969589;28;20141;-82
2024/03/07 10:36:25;;;;;;;52.83;26.83;;;10.50;99.90;;;;;;4971068;28;20113;-82
2024/03/07 10:38:51;;;;;;;48.25;24.90;;;11.70;99.90;;;;;;4970792;28;20066;-82
2024/03/07 10:41:17;;;;;;;48.42;26.30;;;12.80;99.90;;;;;;4970596;28;20054;-82
2024/03/07 10:43:50;;;;;;;42.53;23.83;;;13.00;98.10;;;;;;4969448;28;20026;-82
2024/03/07 10:46:18;;;;;;;46.92;23.73;;;12.80;96.70;;;;;;4970698;28;20026;-82
2024/03/07 10:48:47;;;;;;;40.30;23.30;;;12.50;95.90;;;;;;4985658;28;20038;-82
2024/03/07 10:51:45;;;;;;;41.17;22.98;;;11.90;97.10;;;;;;4969198;28;20509;-81
2024/03/07 10:54:38;;;;;;;36.60;22.48;;;11.60;97.30;;;;;;4969683;28;20121;-80
2024/03/07 10:57:35;;;;;;;41.00;21.63;;;11.20;97.50;;;;;;4969336;28;20502;-81
2024/03/07 11:00:24;;;;;;;40.45;21.90;;;12.20;97.70;;;;;;4970680;28;20390;-81
2024/03/07 11:02:53;;;;;;;39.42;22.27;;;12.60;95.10;;;;;;4974216;28;20359;-81
2024/03/07 11:05:19;;;;;;;38.00;23.02;;;12.20;96.30;;;;;;4975396;28;20018;-81
2024/03/07 11:07:46;;;;;;;38.22;23.08;;;11.60;96.00;;;;;;4974206;28;20062;-81
2024/03/07 11:10:12;;;;;;;46.00;23.42;;;11.40;96.70;;;;;;4973735;28;20082;-83
2024/03/07 11:12:41;;;;;;;35.83;22.25;;;12.60;97.20;;;;;;4974289;28;20117;-81
2024/03/07 11:15:14;;;;;;;35.38;21.17;;;13.40;95.40;;;;;;4989179;28;20023;-81
2024/03/07 11:17:43;;;;;;;32.08;19.88;;;14.20;92.60;;;;;;4973072;28;20393;-81
2024/03/07 11:20:22;;;;;;;33.90;20.50;;;14.30;90.20;;;;;;4972644;28;20027;-81
2024/03/07 11:22:49;;;;;;;32.28;20.38;;;13.80;90.90;;;;;;4972739;28;20520;-82
2024/03/07 11:25:18;;;;;;;43.10;25.20;;;13.30;91.90;;;;;;4972966;28;20390;-81
2024/03/07 11:27:56;;;;;;;40.58;23.08;;;12.80;92.80;;;;;;4974003;28;20041;-81
2024/03/07 11:30:22;;;;;;;40.35;22.95;;;13.50;93.50;;;;;;4973631;28;20115;-82
2024/03/07 11:32:50;;;;;;;38.28;23.05;;;14.20;92.10;;;;;;4974150;28;20239;-82
2024/03/07 11:35:16;;;;;;;34.78;20.45;;;14.00;92.00;;;;;;4972995;28;20169;-82
2024/03/07 11:37:46;;;;;;;33.65;21.10;;;13.70;92.60;;;;;;4972879;28;20122;-81
2024/03/07 11:40:18;;;;;;;36.47;20.45;;;13.40;92.30;;;;;;4972271;28;20033;-82
2024/03/07 11:42:49;;;;;;;32.70;20.52;;;13.60;92.50;;;;;;4972400;28;20035;-81
2024/03/07 11:45:24;;;;;;;39.13;22.67;;;13.30;92.20;;;;;;4972556;28;20097;-82
2024/03/07 11:48:12;;;;;;;36.60;20.58;;;12.40;93.20;;;;;;4972236;28;20031;-82
2024/03/07 11:50:41;;;;;;;37.38;21.55;;;12.80;93.70;;;;;;4971798;28;20057;-81
2024/03/07 11:53:08;;;;;;;34.72;20.48;;;12.70;93.20;;;;;;4972355;28;20401;-81
2024/03/07 11:55:45;;;;;;;37.05;22.90;;;12.80;93.60;;;;;;4972157;28;20027;-81
2024/03/07 11:58:16;;;;;;;40.55;22.50;;;12.40;92.60;;;;;;4973176;28;20362;-82
2024/03/07 12:00:44;;;;;;;38.00;22.15;;;12.10;94.00;;;;;;4973000;28;20030;-81
2024/03/07 12:03:25;;;;;;;38.20;22.85;;;11.60;94.30;;;;;;4972500;28;20027;-82
2024/03/07 12:05:52;;;;;;;34.58;21.40;;;11.30;95.10;;;;;;4972259;28;20194;-83
2024/03/07 12:08:18;;;;;;;34.00;21.05;;;10.80;95.40;;;;;;4973783;28;20042;-83
2024/03/07 12:10:44;;;;;;;33.53;20.45;;;10.70;96.50;;;;;;4971566;28;20121;-82
2024/03/07 12:13:11;;;;;;;39.75;22.23;;;10.70;97.00;;;;;;4970705;28;20031;-82
2024/03/07 12:15:38;;;;;;;34.80;20.30;;;11.10;96.70;;;;;;4971567;28;20026;-81
2024/03/07 12:18:08;;;;;;;36.72;22.20;;;11.80;95.40;;;;;;4971641;28;20445;-81
2024/03/07 12:20:36;;;;;;;38.47;21.25;;;12.20;93.60;;;;;;4972745;28;20401;-81
2024/03/07 12:23:02;;;;;;;32.25;20.48;;;11.70;93.60;;;;;;4971377;28;20089;-82
2024/03/07 12:25:29;;;;;;;46.22;24.27;;;11.60;94.70;;;;;;4972740;28;20123;-81
2024/03/07 12:28:11;;;;;;;40.38;22.17;;;11.60;93.80;;;;;;4972857;28;20105;-77
2024/03/07 12:30:57;;;;;;;38.17;20.67;;;11.20;93.80;;;;;;4987370;28;20038;-77
2024/03/07 12:33:25;;;;;;;34.88;20.58;;;10.90;94.90;;;;;;4971074;28;20568;-77
2024/03/07 12:35:52;;;;;;;35.47;19.92;;;10.80;95.30;;;;;;4971286;28;20398;-77
2024/03/07 12:38:23;;;;;;;31.50;19.05;;;10.70;95.10;;;;;;4971158;28;20654;-76